sensor_id;sensor_type;location;lat;lon;timestamp;pressure;altitude;pressure_sealevel;temperature;humidity
54918;BME280;40818;50.562;7.454;2022-11-15T00:03:22;97214.81;;;8.56;100.00
54918;BME280;40818;50.562;7.454;2022-11-15T00:08:47;97211.63;;;8.65;100.00
54918;BME280;40818;50.562;7.454;2022-11-15T00:14:09;97214.34;;;8.76;100.00
54918;BME280;40818;50.562;7.454;2022-11-15T00:19:31;97196.53;;;8.84;100.00
54918;BME280;40818;50.562;7.454;2022-11-15T00:24:56;97195.19;;;8.92;100.00
54918;BME280;40818;50.562;7.454;2022-11-15T00:30:18;97193.44;;;8.92;100.00
54918;BME280;40818;50.562;7.454;2022-11-15T00:35:40;97195.72;;;8.97;100.00
54918;BME280;40818;50.562;7.454;2022-11-15T00:41:06;97191.66;;;9.05;100.00
54918;BME280;40818;50.562;7.454;2022-11-15T00:46:29;97188.25;;;9.05;100.00
54918;BME280;40818;50.562;7.454;2022-11-15T00:51:51;97197.78;;;9.04;100.00
54918;BME280;40818;50.562;7.454;2022-11-15T00:57:15;97192.41;;;9.08;100.00
54918;BME280;40818;50.562;7.454;2022-11-15T01:02:38;97193.75;;;9.13;100.00
54918;BME280;40818;50.562;7.454;2022-11-15T01:08:00;97193.84;;;8.99;100.00
54918;BME280;40818;50.562;7.454;2022-11-15T01:13:24;97186.91;;;8.86;100.00
54918;BME280;40818;50.562;7.454;2022-11-15T01:18:46;97185.47;;;8.82;100.00
54918;BME280;40818;50.562;7.454;2022-11-15T01:24:11;97176.75;;;8.83;100.00
54918;BME280;40818;50.562;7.454;2022-11-15T01:29:37;97188.25;;;8.79;100.00
54918;BME280;40818;50.562;7.454;2022-11-15T01:34:59;97170.03;;;8.81;100.00
54918;BME280;40818;50.562;7.454;2022-11-15T01:40:21;97179.88;;;8.88;100.00
54918;BME280;40818;50.562;7.454;2022-11-15T01:45:46;97175.00;;;8.97;100.00
54918;BME280;40818;50.562;7.454;2022-11-15T01:51:12;97169.22;;;9.06;100.00
54918;BME280;40818;50.562;7.454;2022-11-15T01:56:38;97156.75;;;9.11;100.00
54918;BME280;40818;50.562;7.454;2022-11-15T02:02:06;97154.69;;;9.16;100.00
54918;BME280;40818;50.562;7.454;2022-11-15T02:07:29;97148.25;;;9.22;100.00
54918;BME280;40818;50.562;7.454;2022-11-15T02:12:53;97144.31;;;9.29;100.00
54918;BME280;40818;50.562;7.454;2022-11-15T02:18:24;97136.41;;;9.31;100.00
54918;BME280;40818;50.562;7.454;2022-11-15T02:24:16;97121.31;;;9.25;100.00
54918;BME280;40818;50.562;7.454;2022-11-15T02:35:36;97112.75;;;9.11;100.00
54918;BME280;40818;50.562;7.454;2022-11-15T02:41:02;97125.09;;;9.08;100.00
54918;BME280;40818;50.562;7.454;2022-11-15T02:46:31;97116.25;;;9.10;100.00
54918;BME280;40818;50.562;7.454;2022-11-15T02:52:14;97105.72;;;9.13;100.00
54918;BME280;40818;50.562;7.454;2022-11-15T02:57:43;97108.50;;;9.10;100.00
54918;BME280;40818;50.562;7.454;2022-11-15T03:03:24;97098.13;;;9.10;100.00
54918;BME280;40818;50.562;7.454;2022-11-15T03:09:01;97096.50;;;9.09;100.00
54918;BME280;40818;50.562;7.454;2022-11-15T03:14:29;97095.75;;;9.07;100.00
54918;BME280;40818;50.562;7.454;2022-11-15T03:19:57;97101.69;;;9.09;100.00
54918;BME280;40818;50.562;7.454;2022-11-15T03:25:24;97093.16;;;9.07;100.00
54918;BME280;40818;50.562;7.454;2022-11-15T03:30:47;97101.06;;;9.05;100.00
54918;BME280;40818;50.562;7.454;2022-11-15T03:36:11;97101.69;;;9.09;100.00
54918;BME280;40818;50.562;7.454;2022-11-15T03:41:40;97099.38;;;9.04;100.00
54918;BME280;40818;50.562;7.454;2022-11-15T03:47:08;97095.06;;;9.05;100.00
54918;BME280;40818;50.562;7.454;2022-11-15T03:52:33;97102.16;;;9.14;100.00
54918;BME280;40818;50.562;7.454;2022-11-15T03:58:00;97107.34;;;9.14;100.00
54918;BME280;40818;50.562;7.454;2022-11-15T04:03:22;97101.56;;;9.11;100.00
54918;BME280;40818;50.562;7.454;2022-11-15T04:08:44;97102.59;;;9.08;100.00
54918;BME280;40818;50.562;7.454;2022-11-15T04:14:09;97096.50;;;9.09;100.00
54918;BME280;40818;50.562;7.454;2022-11-15T04:19:31;97094.84;;;9.08;100.00
54918;BME280;40818;50.562;7.454;2022-11-15T04:25:06;97091.44;;;9.08;100.00
54918;BME280;40818;50.562;7.454;2022-11-15T04:30:30;97083.44;;;9.11;100.00
54918;BME280;40818;50.562;7.454;2022-11-15T04:35:52;97084.03;;;9.14;100.00
54918;BME280;40818;50.562;7.454;2022-11-15T04:41:27;97078.78;;;9.16;100.00
54918;BME280;40818;50.562;7.454;2022-11-15T04:46:51;97083.63;;;9.20;100.00
54918;BME280;40818;50.562;7.454;2022-11-15T04:52:14;97088.38;;;9.27;100.00
54918;BME280;40818;50.562;7.454;2022-11-15T04:57:36;97088.97;;;9.30;100.00
54918;BME280;40818;50.562;7.454;2022-11-15T05:03:00;97086.06;;;9.35;100.00
54918;BME280;40818;50.562;7.454;2022-11-15T05:08:35;97087.72;;;9.36;100.00
54918;BME280;40818;50.562;7.454;2022-11-15T05:13:57;97094.56;;;9.37;100.00
54918;BME280;40818;50.562;7.454;2022-11-15T05:19:22;97084.22;;;9.37;100.00
54918;BME280;40818;50.562;7.454;2022-11-15T05:24:44;97089.81;;;9.31;100.00
54918;BME280;40818;50.562;7.454;2022-11-15T05:30:08;97087.09;;;9.32;100.00
54918;BME280;40818;50.562;7.454;2022-11-15T05:35:35;97087.94;;;9.33;100.00
54918;BME280;40818;50.562;7.454;2022-11-15T05:41:00;97091.25;;;9.35;100.00
54918;BME280;40818;50.562;7.454;2022-11-15T05:46:23;97088.53;;;9.36;100.00
54918;BME280;40818;50.562;7.454;2022-11-15T05:51:48;97078.00;;;9.27;100.00
54918;BME280;40818;50.562;7.454;2022-11-15T05:57:11;97091.69;;;9.29;100.00
54918;BME280;40818;50.562;7.454;2022-11-15T06:02:33;97098.72;;;9.27;100.00
54918;BME280;40818;50.562;7.454;2022-11-15T06:07:59;97106.59;;;9.25;100.00
54918;BME280;40818;50.562;7.454;2022-11-15T06:13:21;97099.16;;;9.20;100.00
54918;BME280;40818;50.562;7.454;2022-11-15T06:18:43;97098.34;;;9.20;100.00
54918;BME280;40818;50.562;7.454;2022-11-15T06:24:08;97101.00;;;9.18;100.00
54918;BME280;40818;50.562;7.454;2022-11-15T06:29:30;97106.56;;;9.01;100.00
54918;BME280;40818;50.562;7.454;2022-11-15T06:34:52;97113.19;;;9.05;100.00
54918;BME280;40818;50.562;7.454;2022-11-15T06:40:17;97122.59;;;9.06;100.00
54918;BME280;40818;50.562;7.454;2022-11-15T06:45:39;97120.94;;;9.05;100.00
54918;BME280;40818;50.562;7.454;2022-11-15T06:51:02;97127.78;;;9.06;100.00
54918;BME280;40818;50.562;7.454;2022-11-15T06:56:27;97133.88;;;9.05;100.00
54918;BME280;40818;50.562;7.454;2022-11-15T07:01:49;97118.28;;;8.94;100.00
54918;BME280;40818;50.562;7.454;2022-11-15T07:07:11;97123.75;;;8.76;100.00
54918;BME280;40818;50.562;7.454;2022-11-15T07:12:36;97127.50;;;8.59;100.00
54918;BME280;40818;50.562;7.454;2022-11-15T07:18:00;97130.56;;;8.51;100.00
54918;BME280;40818;50.562;7.454;2022-11-15T07:23:22;97123.31;;;8.44;100.00
54918;BME280;40818;50.562;7.454;2022-11-15T07:28:47;97133.94;;;8.39;100.00
54918;BME280;40818;50.562;7.454;2022-11-15T07:34:09;97135.06;;;8.35;100.00
54918;BME280;40818;50.562;7.454;2022-11-15T07:39:31;97135.81;;;8.37;100.00
54918;BME280;40818;50.562;7.454;2022-11-15T07:44:56;97138.53;;;8.48;100.00
54918;BME280;40818;50.562;7.454;2022-11-15T07:50:18;97138.03;;;8.56;100.00
54918;BME280;40818;50.562;7.454;2022-11-15T07:55:41;97137.09;;;8.57;100.00
54918;BME280;40818;50.562;7.454;2022-11-15T08:01:06;97140.22;;;8.62;100.00
54918;BME280;40818;50.562;7.454;2022-11-15T08:06:29;97137.13;;;8.70;100.00
54918;BME280;40818;50.562;7.454;2022-11-15T08:11:51;97142.63;;;8.78;100.00
54918;BME280;40818;50.562;7.454;2022-11-15T08:17:16;97134.41;;;8.84;100.00
54918;BME280;40818;50.562;7.454;2022-11-15T08:22:38;97137.72;;;8.86;100.00
54918;BME280;40818;50.562;7.454;2022-11-15T08:28:02;97132.13;;;8.93;100.00
54918;BME280;40818;50.562;7.454;2022-11-15T08:33:27;97138.53;;;9.00;100.00
54918;BME280;40818;50.562;7.454;2022-11-15T08:38:50;97118.34;;;9.05;100.00
54918;BME280;40818;50.562;7.454;2022-11-15T08:44:12;97110.16;;;9.11;100.00
54918;BME280;40818;50.562;7.454;2022-11-15T08:49:37;97107.44;;;9.13;100.00
54918;BME280;40818;50.562;7.454;2022-11-15T08:54:59;97107.63;;;9.22;100.00
54918;BME280;40818;50.562;7.454;2022-11-15T09:00:21;97099.34;;;9.30;100.00
54918;BME280;40818;50.562;7.454;2022-11-15T09:05:46;97089.38;;;9.37;100.00
54918;BME280;40818;50.562;7.454;2022-11-15T09:11:09;97094.13;;;9.43;100.00
54918;BME280;40818;50.562;7.454;2022-11-15T09:16:31;97096.47;;;9.46;100.00
54918;BME280;40818;50.562;7.454;2022-11-15T09:21:56;97088.06;;;9.55;100.00
54918;BME280;40818;50.562;7.454;2022-11-15T09:27:18;97092.31;;;9.56;100.00
54918;BME280;40818;50.562;7.454;2022-11-15T09:32:40;97096.13;;;9.64;100.00
54918;BME280;40818;50.562;7.454;2022-11-15T09:38:05;97095.25;;;9.76;100.00
54918;BME280;40818;50.562;7.454;2022-11-15T09:43:32;97095.13;;;9.78;100.00
54918;BME280;40818;50.562;7.454;2022-11-15T09:48:59;97094.91;;;10.05;100.00
54918;BME280;40818;50.562;7.454;2022-11-15T09:54:39;97082.28;;;10.36;100.00
54918;BME280;40818;50.562;7.454;2022-11-15T10:00:00;97067.41;;;10.38;100.00
54918;BME280;40818;50.562;7.454;2022-11-15T10:05:18;97058.88;;;10.24;100.00
54918;BME280;40818;50.562;7.454;2022-11-15T10:10:29;97043.84;;;10.52;100.00
54918;BME280;40818;50.562;7.454;2022-11-15T10:15:35;97035.34;;;10.73;100.00
54918;BME280;40818;50.562;7.454;2022-11-15T10:20:46;97027.78;;;10.81;100.00
54918;BME280;40818;50.562;7.454;2022-11-15T10:25:55;97021.41;;;10.85;100.00
54918;BME280;40818;50.562;7.454;2022-11-15T10:31:00;97008.69;;;10.59;100.00
54918;BME280;40818;50.562;7.454;2022-11-15T10:36:16;97016.22;;;10.74;100.00
54918;BME280;40818;50.562;7.454;2022-11-15T10:41:29;96995.88;;;11.02;100.00
54918;BME280;40818;50.562;7.454;2022-11-15T10:46:36;96996.63;;;10.92;100.00
54918;BME280;40818;50.562;7.454;2022-11-15T10:51:43;96983.63;;;11.04;100.00
54918;BME280;40818;50.562;7.454;2022-11-15T10:56:53;96984.97;;;11.31;100.00
54918;BME280;40818;50.562;7.454;2022-11-15T11:01:57;96970.72;;;11.14;100.00
54918;BME280;40818;50.562;7.454;2022-11-15T11:07:01;96979.34;;;11.14;100.00
54918;BME280;40818;50.562;7.454;2022-11-15T11:12:10;96969.22;;;11.00;100.00
54918;BME280;40818;50.562;7.454;2022-11-15T11:17:22;96964.47;;;11.05;100.00
54918;BME280;40818;50.562;7.454;2022-11-15T11:22:38;96950.50;;;11.17;100.00
54918;BME280;40818;50.562;7.454;2022-11-15T11:27:58;96943.88;;;11.24;100.00
54918;BME280;40818;50.562;7.454;2022-11-15T11:33:10;96928.06;;;11.27;100.00
54918;BME280;40818;50.562;7.454;2022-11-15T11:43:53;96939.16;;;11.51;100.00
54918;BME280;40818;50.562;7.454;2022-11-15T11:49:04;96919.44;;;11.48;100.00
54918;BME280;40818;50.562;7.454;2022-11-15T11:54:14;96904.69;;;11.49;100.00
54918;BME280;40818;50.562;7.454;2022-11-15T11:59:31;96910.66;;;11.82;100.00
54918;BME280;40818;50.562;7.454;2022-11-15T12:04:40;96910.94;;;11.46;100.00
54918;BME280;40818;50.562;7.454;2022-11-15T12:09:52;96905.69;;;11.78;100.00
54918;BME280;40818;50.562;7.454;2022-11-15T12:15:02;96896.03;;;11.48;100.00
54918;BME280;40818;50.562;7.454;2022-11-15T12:20:15;96890.34;;;11.33;100.00
54918;BME280;40818;50.562;7.454;2022-11-15T12:25:22;96873.97;;;11.42;100.00
54918;BME280;40818;50.562;7.454;2022-11-15T12:30:40;96872.91;;;11.45;100.00
54918;BME280;40818;50.562;7.454;2022-11-15T12:35:57;96856.31;;;11.36;100.00
54918;BME280;40818;50.562;7.454;2022-11-15T12:41:15;96860.69;;;11.36;100.00
54918;BME280;40818;50.562;7.454;2022-11-15T12:52:05;96841.94;;;11.32;100.00
54918;BME280;40818;50.562;7.454;2022-11-15T12:57:42;96841.13;;;11.32;100.00
54918;BME280;40818;50.562;7.454;2022-11-15T13:02:49;96831.06;;;11.48;100.00
54918;BME280;40818;50.562;7.454;2022-11-15T13:07:57;96816.81;;;11.42;100.00
54918;BME280;40818;50.562;7.454;2022-11-15T13:13:03;96808.47;;;11.39;100.00
54918;BME280;40818;50.562;7.454;2022-11-15T13:23:57;96790.47;;;11.26;100.00
54918;BME280;40818;50.562;7.454;2022-11-15T13:29:00;96791.34;;;11.36;100.00
54918;BME280;40818;50.562;7.454;2022-11-15T13:34:26;96782.84;;;11.34;100.00
54918;BME280;40818;50.562;7.454;2022-11-15T13:39:34;96768.59;;;11.28;100.00
54918;BME280;40818;50.562;7.454;2022-11-15T13:44:38;96760.03;;;11.38;100.00
54918;BME280;40818;50.562;7.454;2022-11-15T13:49:42;96746.13;;;11.18;100.00
54918;BME280;40818;50.562;7.454;2022-11-15T13:54:53;96741.13;;;11.05;100.00
54918;BME280;40818;50.562;7.454;2022-11-15T14:00:03;96735.69;;;11.08;100.00
54918;BME280;40818;50.562;7.454;2022-11-15T14:05:16;96737.31;;;11.09;100.00
54918;BME280;40818;50.562;7.454;2022-11-15T14:10:28;96733.66;;;11.12;100.00
54918;BME280;40818;50.562;7.454;2022-11-15T14:15:34;96722.94;;;11.05;100.00
54918;BME280;40818;50.562;7.454;2022-11-15T14:20:39;96709.09;;;10.95;100.00
54918;BME280;40818;50.562;7.454;2022-11-15T14:25:52;96693.19;;;10.88;100.00
54918;BME280;40818;50.562;7.454;2022-11-15T14:30:57;96698.59;;;10.75;100.00
54918;BME280;40818;50.562;7.454;2022-11-15T14:36:03;96678.00;;;10.62;100.00
54918;BME280;40818;50.562;7.454;2022-11-15T14:41:18;96673.69;;;10.51;100.00
54918;BME280;40818;50.562;7.454;2022-11-15T14:46:21;96671.59;;;10.45;100.00
54918;BME280;40818;50.562;7.454;2022-11-15T14:51:25;96676.34;;;10.40;100.00
54918;BME280;40818;50.562;7.454;2022-11-15T14:56:31;96674.97;;;10.36;100.00
54918;BME280;40818;50.562;7.454;2022-11-15T15:01:35;96662.22;;;10.33;100.00
54918;BME280;40818;50.562;7.454;2022-11-15T15:06:38;96650.19;;;10.32;100.00
54918;BME280;40818;50.562;7.454;2022-11-15T15:11:44;96650.91;;;10.22;100.00
54918;BME280;40818;50.562;7.454;2022-11-15T15:16:48;96640.66;;;10.21;100.00
54918;BME280;40818;50.562;7.454;2022-11-15T15:21:51;96633.97;;;10.18;100.00
54918;BME280;40818;50.562;7.454;2022-11-15T15:26:57;96630.56;;;10.18;100.00
54918;BME280;40818;50.562;7.454;2022-11-15T15:32:01;96629.53;;;10.09;100.00
54918;BME280;40818;50.562;7.454;2022-11-15T15:37:09;96621.84;;;10.07;100.00
54918;BME280;40818;50.562;7.454;2022-11-15T15:42:15;96612.31;;;10.08;100.00
54918;BME280;40818;50.562;7.454;2022-11-15T15:47:20;96625.16;;;10.10;100.00
54918;BME280;40818;50.562;7.454;2022-11-15T15:52:24;96613.31;;;9.96;100.00
54918;BME280;40818;50.562;7.454;2022-11-15T15:57:30;96601.75;;;10.00;100.00
54918;BME280;40818;50.562;7.454;2022-11-15T16:02:33;96606.59;;;9.93;100.00
54918;BME280;40818;50.562;7.454;2022-11-15T16:07:37;96599.16;;;10.00;100.00
54918;BME280;40818;50.562;7.454;2022-11-15T16:12:46;96593.47;;;10.06;100.00
54918;BME280;40818;50.562;7.454;2022-11-15T16:17:51;96581.47;;;10.05;100.00
54918;BME280;40818;50.562;7.454;2022-11-15T16:22:55;96570.13;;;10.06;100.00
54918;BME280;40818;50.562;7.454;2022-11-15T16:28:01;96564.00;;;10.07;100.00
54918;BME280;40818;50.562;7.454;2022-11-15T16:33:05;96576.38;;;10.03;100.00
54918;BME280;40818;50.562;7.454;2022-11-15T16:38:14;96555.34;;;9.97;100.00
54918;BME280;40818;50.562;7.454;2022-11-15T16:43:20;96555.34;;;9.97;100.00
54918;BME280;40818;50.562;7.454;2022-11-15T16:48:25;96551.09;;;9.96;100.00
54918;BME280;40818;50.562;7.454;2022-11-15T16:53:29;96549.69;;;9.91;100.00
54918;BME280;40818;50.562;7.454;2022-11-15T16:58:36;96553.81;;;9.94;100.00
54918;BME280;40818;50.562;7.454;2022-11-15T17:03:39;96557.09;;;9.96;100.00
54918;BME280;40818;50.562;7.454;2022-11-15T17:08:44;96549.44;;;9.95;100.00
54918;BME280;40818;50.562;7.454;2022-11-15T17:13:50;96542.88;;;9.90;100.00
54918;BME280;40818;50.562;7.454;2022-11-15T17:18:53;96536.03;;;9.89;100.00
54918;BME280;40818;50.562;7.454;2022-11-15T17:23:58;96538.06;;;9.86;100.00
54918;BME280;40818;50.562;7.454;2022-11-15T17:29:04;96534.66;;;9.85;100.00
54918;BME280;40818;50.562;7.454;2022-11-15T17:34:09;96535.34;;;9.87;100.00
54918;BME280;40818;50.562;7.454;2022-11-15T17:39:12;96532.75;;;9.87;100.00
54918;BME280;40818;50.562;7.454;2022-11-15T17:44:20;96529.47;;;9.85;100.00
54918;BME280;40818;50.562;7.454;2022-11-15T17:49:24;96531.63;;;9.80;100.00
54918;BME280;40818;50.562;7.454;2022-11-15T17:54:27;96532.44;;;9.81;100.00
54918;BME280;40818;50.562;7.454;2022-11-15T17:59:33;96527.75;;;9.74;100.00
54918;BME280;40818;50.562;7.454;2022-11-15T18:04:37;96520.66;;;9.77;100.00
54918;BME280;40818;50.562;7.454;2022-11-15T18:09:40;96519.13;;;9.74;100.00
54918;BME280;40818;50.562;7.454;2022-11-15T18:14:46;96521.03;;;9.72;100.00
54918;BME280;40818;50.562;7.454;2022-11-15T18:19:50;96522.91;;;9.70;100.00
54918;BME280;40818;50.562;7.454;2022-11-15T18:24:53;96520.03;;;9.63;100.00
54918;BME280;40818;50.562;7.454;2022-11-15T18:29:59;96503.91;;;9.60;100.00
54918;BME280;40818;50.562;7.454;2022-11-15T18:35:04;96512.28;;;9.52;100.00
54918;BME280;40818;50.562;7.454;2022-11-15T18:40:09;96501.84;;;9.42;100.00
54918;BME280;40818;50.562;7.454;2022-11-15T18:45:15;96507.91;;;9.31;100.00
54918;BME280;40818;50.562;7.454;2022-11-15T18:50:18;96495.91;;;9.19;100.00
54918;BME280;40818;50.562;7.454;2022-11-15T18:55:22;96493.69;;;9.14;100.00
54918;BME280;40818;50.562;7.454;2022-11-15T19:00:28;96489.00;;;9.08;100.00
54918;BME280;40818;50.562;7.454;2022-11-15T19:05:31;96485.25;;;9.01;100.00
54918;BME280;40818;50.562;7.454;2022-11-15T19:10:35;96474.31;;;8.97;100.00
54918;BME280;40818;50.562;7.454;2022-11-15T19:15:41;96475.38;;;8.95;100.00
54918;BME280;40818;50.562;7.454;2022-11-15T19:20:44;96472.34;;;8.90;100.00
54918;BME280;40818;50.562;7.454;2022-11-15T19:25:53;96470.81;;;8.87;100.00
54918;BME280;40818;50.562;7.454;2022-11-15T19:31:11;96468.34;;;8.85;100.00
54918;BME280;40818;50.562;7.454;2022-11-15T19:36:16;96458.94;;;8.84;100.00
54918;BME280;40818;50.562;7.454;2022-11-15T19:41:22;96454.69;;;8.83;100.00
54918;BME280;40818;50.562;7.454;2022-11-15T19:46:29;96454.44;;;8.86;100.00
54918;BME280;40818;50.562;7.454;2022-11-15T19:51:33;96450.34;;;8.84;100.00
54918;BME280;40818;50.562;7.454;2022-11-15T19:56:37;96439.16;;;8.83;100.00
54918;BME280;40818;50.562;7.454;2022-11-15T20:01:44;96434.00;;;8.83;100.00
54918;BME280;40818;50.562;7.454;2022-11-15T20:06:47;96435.03;;;8.81;100.00
54918;BME280;40818;50.562;7.454;2022-11-15T20:11:50;96426.22;;;8.83;100.00
54918;BME280;40818;50.562;7.454;2022-11-15T20:16:56;96422.94;;;8.81;100.00
54918;BME280;40818;50.562;7.454;2022-11-15T20:22:00;96416.25;;;8.79;100.00
54918;BME280;40818;50.562;7.454;2022-11-15T20:27:03;96417.53;;;8.84;100.00
54918;BME280;40818;50.562;7.454;2022-11-15T20:32:10;96404.84;;;8.81;100.00
54918;BME280;40818;50.562;7.454;2022-11-15T20:37:14;96408.25;;;8.82;100.00
54918;BME280;40818;50.562;7.454;2022-11-15T20:42:19;96399.66;;;8.81;100.00
54918;BME280;40818;50.562;7.454;2022-11-15T20:47:25;96396.13;;;8.82;100.00
54918;BME280;40818;50.562;7.454;2022-11-15T20:52:28;96402.25;;;8.81;100.00
54918;BME280;40818;50.562;7.454;2022-11-15T20:57:32;96384.25;;;8.80;100.00
54918;BME280;40818;50.562;7.454;2022-11-15T21:02:38;96384.38;;;8.78;100.00
54918;BME280;40818;50.562;7.454;2022-11-15T21:07:41;96381.91;;;8.77;100.00
54918;BME280;40818;50.562;7.454;2022-11-15T21:12:45;96377.81;;;8.74;100.00
54918;BME280;40818;50.562;7.454;2022-11-15T21:17:51;96370.16;;;8.73;100.00
54918;BME280;40818;50.562;7.454;2022-11-15T21:22:54;96364.16;;;8.72;100.00
54918;BME280;40818;50.562;7.454;2022-11-15T21:27:58;96362.38;;;8.73;100.00
54918;BME280;40818;50.562;7.454;2022-11-15T21:33:04;96355.22;;;8.76;100.00
54918;BME280;40818;50.562;7.454;2022-11-15T21:38:07;96343.47;;;8.72;100.00
54918;BME280;40818;50.562;7.454;2022-11-15T21:43:11;96344.41;;;8.71;100.00
54918;BME280;40818;50.562;7.454;2022-11-15T21:48:17;96336.88;;;8.68;100.00
54918;BME280;40818;50.562;7.454;2022-11-15T21:53:20;96331.16;;;8.64;100.00
54918;BME280;40818;50.562;7.454;2022-11-15T21:58:24;96331.38;;;8.61;100.00
54918;BME280;40818;50.562;7.454;2022-11-15T22:03:30;96317.75;;;8.59;100.00
54918;BME280;40818;50.562;7.454;2022-11-15T22:08:34;96313.41;;;8.60;100.00
54918;BME280;40818;50.562;7.454;2022-11-15T22:13:37;96305.75;;;8.58;100.00
54918;BME280;40818;50.562;7.454;2022-11-15T22:18:44;96306.56;;;8.59;100.00
54918;BME280;40818;50.562;7.454;2022-11-15T22:23:47;96294.47;;;8.59;100.00
54918;BME280;40818;50.562;7.454;2022-11-15T22:28:51;96290.38;;;8.57;100.00
54918;BME280;40818;50.562;7.454;2022-11-15T22:33:57;96282.84;;;8.53;100.00
54918;BME280;40818;50.562;7.454;2022-11-15T22:39:00;96277.44;;;8.57;100.00
54918;BME280;40818;50.562;7.454;2022-11-15T22:44:04;96280.03;;;8.57;100.00
54918;BME280;40818;50.562;7.454;2022-11-15T22:49:10;96269.81;;;8.55;100.00
54918;BME280;40818;50.562;7.454;2022-11-15T22:54:14;96262.84;;;8.56;100.00
54918;BME280;40818;50.562;7.454;2022-11-15T22:59:17;96263.09;;;8.52;100.00
54918;BME280;40818;50.562;7.454;2022-11-15T23:04:23;96270.75;;;8.54;100.00
54918;BME280;40818;50.562;7.454;2022-11-15T23:09:27;96269.09;;;8.53;100.00
54918;BME280;40818;50.562;7.454;2022-11-15T23:14:30;96250.75;;;8.56;100.00
54918;BME280;40818;50.562;7.454;2022-11-15T23:19:36;96248.97;;;8.57;100.00
54918;BME280;40818;50.562;7.454;2022-11-15T23:24:40;96241.22;;;8.57;100.00
54918;BME280;40818;50.562;7.454;2022-11-15T23:29:44;96240.41;;;8.56;100.00
54918;BME280;40818;50.562;7.454;2022-11-15T23:35:03;96237.56;;;8.59;100.00
54918;BME280;40818;50.562;7.454;2022-11-15T23:40:08;96230.63;;;8.60;100.00
54918;BME280;40818;50.562;7.454;2022-11-15T23:45:12;96233.06;;;8.61;100.00
54918;BME280;40818;50.562;7.454;2022-11-15T23:50:19;96233.06;;;8.61;100.00
54918;BME280;40818;50.562;7.454;2022-11-15T23:55:22;96220.28;;;8.60;100.00
